Latest Weather Observations for Kempsey Airport

IDN60801

Issued at 6:02 pm EDT Friday 27 March 2015 (issued every 30 minutes, with the page automatically refreshed every 10 minutes)

About weather observations | Map of weather stations | Latest weather observations for NSW | Other Formats
Station Details ID: 059007 Name: KEMPSEY AIRPORT AWS Lat: -31.07 Lon: 152.77 Height: 13.0 m
Data from the previous 72 hours. | See also: Recent months for locations in New South Wales
Date/Time
EDT
Temp
°C
App
Temp
°C
Dew
Point
Rel
Hum
%
Delta-T
°C
Wind Press
QNH
hPa
Press
MSL
hPa
Rain
since 9 am
mm
Dir
 
Spd
km/h
Gust
km/h
Spd
kts
Gust
kts
27/06:00pm 22.1 20.4 11.2 50 6.0 ENE 11 15 6 8 1018.7 1018.6 0.0
27/05:30pm 22.9 20.6 10.3 45 6.9 ENE 13 17 7 9 1018.4 1018.3 0.0
27/05:00pm 23.7 21.7 11.4 46 6.9 E 13 19 7 10 1018.0 1017.9 0.0
27/04:30pm 24.0 22.3 12.6 49 6.5 E 13 20 7 11 1017.8 1017.7 0.0
27/04:00pm 24.5 22.5 12.8 48 6.7 ENE 15 20 8 11 1017.7 1017.6 0.0
27/03:30pm 24.9 23.1 14.4 52 6.2 E 17 24 9 13 1017.9 1017.8 0.0
27/03:00pm 24.7 23.0 12.6 47 7.0 E 13 20 7 11 1018.1 1018.0 0.0
27/02:30pm 25.1 23.2 14.3 51 6.4 E 17 24 9 13 1018.4 1018.3 0.0
27/02:00pm 25.2 24.0 12.8 46 7.2 E 11 28 6 15 1018.4 1018.3 0.0
27/01:30pm 25.3 23.7 11.5 42 7.8 ENE 11 20 6 11 1018.8 1018.7 0.0
27/01:00pm 25.2 24.5 13.1 47 7.0 S 9 17 5 9 1019.1 1019.0 0.0
27/12:30pm 24.7 23.8 12.6 47 7.0 SE 9 15 5 8 1019.5 1019.4 0.0
27/12:00pm 24.2 23.2 12.2 47 6.8 SE 9 17 5 9 1019.7 1019.6 0.0
27/11:30am 23.9 23.4 12.5 49 6.5 E 7 13 4 7 1019.9 1019.8 0.0
27/11:00am 23.5 22.7 11.2 46 6.9 E 6 9 3 5 1020.2 1020.1 0.0
27/10:30am 22.7 21.3 10.8 47 6.6 SSW 9 13 5 7 1020.3 1020.2 0.0
27/10:00am 22.2 22.5 12.2 53 5.6 ESE 2 9 1 5 1020.3 1020.2 0.0
27/09:30am 20.9 21.6 12.1 57 4.9 CALM 0 7 0 4 1020.4 1020.3 0.0
27/09:00am 19.8 20.9 13.5 67 3.6 CALM 0 0 0 0 1020.4 1020.3 0.0
27/08:30am 18.8 20.5 15.3 80 2.1 CALM 0 0 0 0 1020.2 1020.1 0.0
27/08:00am 17.3 18.0 15.6 90 1.0 WSW 6 7 3 4 1020.0 1019.9 0.0
27/07:30am 15.6 16.9 14.1 91 0.8 CALM 0 0 0 0 1019.6 1019.5 0.0
27/07:00am 16.0 17.0 13.3 84 1.5 CALM 0 0 0 0 1019.2 1019.1 0.0
27/06:30am 16.2 16.1 13.9 86 1.3 S 7 9 4 5 1018.7 1018.6 0.0
27/06:00am 16.6 18.3 15.3 92 0.8 CALM 0 6 0 3 1018.3 1018.2 0.0
27/05:30am 17.3 19.3 16.0 92 0.8 CALM 0 0 0 0 1017.8 1017.7 0.0
27/05:00am 17.7 19.8 16.2 91 0.9 CALM 0 0 0 0 1017.5 1017.4 0.0
27/04:30am 18.8 21.4 17.5 92 0.8 CALM 0 0 0 0 1017.3 1017.2 0.0
27/04:00am 19.1 20.6 17.6 91 0.9 SW 6 7 3 4 1017.2 1017.1 0.0
27/03:30am 19.5 20.9 17.8 90 1.0 SW 7 9 4 5 1017.0 1016.9 0.0
27/03:00am 20.8 24.3 19.5 92 0.8 CALM 0 6 0 3 1017.0 1016.9 0.0
27/02:30am 21.0 23.2 19.6 92 0.9 WSW 7 11 4 6 1017.0 1016.9 0.0
27/02:00am 20.7 22.8 19.4 92 0.8 SSW 7 9 4 5 1017.2 1017.1 0.0
27/01:30am 21.6 24.1 20.2 92 0.9 SSW 7 11 4 6 1017.2 1017.1 0.0
27/01:00am 21.5 23.3 20.3 93 0.8 SW 11 15 6 8 1017.2 1017.1 0.0
27/12:30am 21.3 23.6 19.8 91 1.0 WSW 7 9 4 5 1017.1 1017.0 0.0
27/12:00am 21.9 24.1 20.5 92 0.9 SW 9 11 5 6 1017.1 1017.0 0.0
 
Date/Time
EDT
Temp
°C
App
Temp
°C
Dew
Point
Rel
Hum
%
Delta-T
°C
Wind Press
QNH
hPa
Press
MSL
hPa
Rain
since 9 am
mm
Dir
 
Spd
km/h
Gust
km/h
Spd
kts
Gust
kts
26/11:30pm 22.2 24.2 20.8 92 0.9 SW 11 13 6 7 1017.0 1016.9 0.0
26/11:00pm 22.3 25.1 20.9 92 0.9 WSW 7 9 4 5 1017.2 1017.1 0.0
26/10:30pm 22.5 25.0 21.1 92 0.9 WSW 9 11 5 6 1017.3 1017.2 0.0
26/10:00pm 22.7 25.7 21.2 91 1.0 W 7 9 4 5 1017.3 1017.2 0.0
26/09:30pm 22.9 26.0 21.4 91 1.0 SW 7 11 4 6 1017.2 1017.1 0.0
26/09:00pm 23.0 27.0 21.3 90 1.1 SW 2 6 1 3 1017.1 1017.0 0.0
26/08:30pm 23.2 27.5 21.1 88 1.4 CALM 0 0 0 0 1016.6 1016.5 0.0
26/08:00pm 23.4 26.8 20.9 86 1.6 SSW 4 7 2 4 1016.2 1016.1 0.0
26/07:30pm 24.7 29.2 21.6 83 2.1 CALM 0 0 0 0 1015.6 1015.5 0.0
26/07:00pm 25.2 28.5 21.5 80 2.5 ESE 6 9 3 5 1015.1 1015.0 0.0
26/06:30pm 26.2 28.9 21.4 75 3.2 ENE 9 13 5 7 1014.8 1014.7 0.0
26/06:00pm 27.1 29.4 22.1 74 3.4 ESE 13 19 7 10 1014.5 1014.4 0.0
26/05:30pm 27.6 29.5 22.1 72 3.7 E 15 19 8 10 1014.1 1014.0 0.0
26/05:00pm 27.9 29.5 22.1 70 3.9 E 17 22 9 12 1014.0 1013.9 0.0
26/04:30pm 27.5 28.3 21.3 69 4.1 E 19 24 10 13 1013.8 1013.7 0.0
26/04:00pm 28.5 30.4 22.0 68 4.4 E 15 20 8 11 1013.9 1013.8 0.0
26/03:30pm 28.7 30.4 20.2 60 5.6 ENE 11 15 6 8 1014.1 1014.0 0.0
26/03:00pm 28.2 28.5 19.7 60 5.5 NE 17 24 9 13 1014.3 1014.2 0.0
26/02:30pm 28.8 29.9 20.5 61 5.5 E 15 22 8 12 1014.6 1014.5 0.0
26/02:00pm 28.3 29.6 20.1 61 5.4 ENE 13 19 7 10 1015.1 1015.0 0.0
26/01:30pm 29.1 30.6 19.7 57 6.1 ENE 11 20 6 11 1015.7 1015.6 0.0
26/01:00pm 28.5 30.4 19.7 59 5.7 NE 9 17 5 9 1016.2 1016.1 0.0
26/12:30pm 27.8 30.0 19.6 61 5.3 E 7 11 4 6 1016.8 1016.7 0.0
26/12:00pm 27.3 29.4 18.9 60 5.4 NNE 6 11 3 6 1017.3 1017.2 0.0
26/11:30am 26.9 28.8 19.0 62 5.1 NNE 7 13 4 7 1017.5 1017.4 0.0
26/11:00am 26.2 27.3 18.8 63 4.7 NE 11 19 6 10 1017.7 1017.6 0.0
26/10:30am 26.0 28.0 19.2 66 4.4 NW 7 15 4 8 1018.0 1017.9 0.0
26/10:00am 24.7 26.3 18.2 67 4.1 NW 7 11 4 6 1018.1 1018.0 0.0
26/09:30am 23.0 24.1 18.1 74 3.1 NW 9 11 5 6 1018.3 1018.2 0.0
26/09:00am 21.6 22.6 17.8 79 2.3 NW 9 13 5 7 1018.4 1018.3 0.0
26/08:30am 21.0 21.9 17.6 81 2.1 W 9 13 5 7 1018.3 1018.2 0.0
26/08:00am 20.5 22.0 17.7 84 1.7 W 6 9 3 5 1018.1 1018.0 0.0
26/07:30am 20.0 21.2 17.4 85 1.6 WNW 7 9 4 5 1017.7 1017.6 0.0
26/07:00am 19.9 21.4 17.5 86 1.5 WSW 6 7 3 4 1017.5 1017.4 0.0
26/06:30am 19.9 21.1 17.3 85 1.6 NW 7 9 4 5 1017.5 1017.4 0.0
26/06:00am 19.8 21.0 17.4 86 1.5 WNW 7 9 4 5 1017.1 1017.0 0.0
26/05:30am 19.8 21.2 17.4 86 1.5 WNW 6 9 3 5 1017.0 1016.9 0.0
26/05:00am 19.8 22.3 17.2 85 1.6 CALM 0 0 0 0 1016.9 1016.8 0.0
26/04:30am 19.9 22.4 17.3 85 1.6 CALM 0 0 0 0 1016.8 1016.7 0.0
26/04:00am 19.9 22.4 17.3 85 1.6 CALM 0 0 0 0 1016.8 1016.7 0.0
26/03:30am 19.9 22.6 17.7 87 1.4 CALM 0 0 0 0 1016.9 1016.8 0.0
26/03:00am 20.0 22.6 17.4 85 1.6 CALM 0 0 0 0 1017.0 1016.9 0.0
26/02:30am 20.1 22.5 17.1 83 1.8 CALM 0 0 0 0 1017.2 1017.1 0.0
26/02:00am 20.2 22.7 17.2 83 1.8 CALM 0 0 0 0 1017.7 1017.6 0.0
26/01:30am 20.2 22.6 17.0 82 1.9 CALM 0 0 0 0 1017.8 1017.7 0.0
26/01:00am 20.1 22.4 16.7 81 2.1 CALM 0 0 0 0 1017.9 1017.8 0.0
26/12:30am 20.2 21.4 16.8 81 2.1 W 6 7 3 4 1018.0 1017.9 0.0
26/12:00am 20.3 22.6 16.7 80 2.2 CALM 0 0 0 0 1018.1 1018.0 0.0
 
Date/Time
EDT
Temp
°C
App
Temp
°C
Dew
Point
Rel
Hum
%
Delta-T
°C
Wind Press
QNH
hPa
Press
MSL
hPa
Rain
since 9 am
mm
Dir
 
Spd
km/h
Gust
km/h
Spd
kts
Gust
kts
25/11:30pm 20.4 22.0 16.8 80 2.2 W 4 7 2 4 1018.2 1018.1 0.0
25/11:00pm 20.5 22.4 16.7 79 2.3 NW 2 9 1 5 1018.3 1018.2 0.0
25/10:30pm 20.7 21.7 16.9 79 2.3 W 7 11 4 6 1018.5 1018.4 0.0
25/10:00pm 20.8 21.4 16.8 78 2.4 WNW 9 13 5 7 1018.5 1018.4 0.0
25/09:30pm 21.0 21.2 16.8 77 2.6 WNW 11 15 6 8 1018.4 1018.3 0.0
25/09:00pm 21.1 22.6 16.7 76 2.7 WNW 4 13 2 7 1018.2 1018.1 0.0
25/08:30pm 21.0 23.3 16.8 77 2.6 CALM 0 0 0 0 1017.9 1017.8 0.0
25/08:00pm 21.1 23.4 16.7 76 2.7 CALM 0 0 0 0 1017.6 1017.5 0.0
25/07:30pm 21.2 23.5 16.8 76 2.7 CALM 0 0 0 0 1017.4 1017.3 0.0
25/07:00pm 21.6 23.7 16.3 72 3.2 CALM 0 0 0 0 1017.0 1016.9 0.0
25/06:30pm 21.7 22.7 16.9 74 2.9 W 7 9 4 5 1016.9 1016.8 0.0
25/06:00pm 22.1 22.6 16.6 71 3.3 SW 9 11 5 6 1016.5 1016.4 0.0
25/05:30pm 22.6 23.7 17.1 71 3.4 SSW 7 9 4 5 1016.1 1016.0 0.0
25/05:00pm 22.7 23.6 16.7 69 3.7 SSW 7 9 4 5 1016.0 1015.9 0.0
25/04:30pm 22.9 24.0 16.7 68 3.8 SSE 6 9 3 5 1015.9 1015.8 0.0
25/04:00pm 22.9 23.9 16.9 69 3.7 SE 7 9 4 5 1015.7 1015.6 0.0
25/03:30pm 23.0 23.9 16.5 67 4.0 SSE 7 11 4 6 1015.7 1015.6 0.0
25/03:00pm 22.9 22.3 15.7 64 4.3 SSE 13 20 7 11 1015.7 1015.6 0.0
25/02:30pm 23.1 23.2 16.6 67 4.0 SSE 11 17 6 9 1015.5 1015.4 0.0
25/02:00pm 23.2 22.6 16.7 67 4.0 SE 15 17 8 9 1015.4 1015.3 0.0
25/01:30pm 23.6 23.9 16.9 66 4.1 SE 11 17 6 9 1015.4 1015.3 0.0
25/01:00pm 23.6 23.2 16.1 62 4.6 SE 13 17 7 9 1015.7 1015.6 0.0
25/12:30pm 24.6 25.3 17.1 63 4.6 SE 9 13 5 7 1015.8 1015.7 0.0
25/12:00pm 24.6 25.0 17.3 64 4.5 SSE 11 19 6 10 1016.0 1015.9 0.0
25/11:30am 24.4 25.2 18.1 68 4.0 S 11 15 6 8 1016.0 1015.9 0.0
25/11:00am 23.7 24.1 17.2 67 4.0 S 11 15 6 8 1016.1 1016.0 0.0
25/10:30am 23.0 23.7 17.9 73 3.2 S 11 15 6 8 1016.1 1016.0 0.0
25/10:00am 22.8 22.3 17.9 74 3.1 S 17 26 9 14 1015.9 1015.8 0.0
25/09:30am 23.6 23.7 18.3 72 3.3 S 15 24 8 13 1015.5 1015.4 0.0
25/09:00am 23.2 23.7 18.3 74 3.1 S 13 17 7 9 1015.2 1015.1 0.0
25/08:30am 22.5 23.4 18.5 78 2.5 S 11 15 6 8 1014.9 1014.8 0.0
25/08:00am 21.9 23.5 19.1 84 1.8 SSE 9 13 5 7 1014.3 1014.2 0.0
25/07:30am 21.7 23.0 19.3 86 1.5 SSE 11 17 6 9 1013.7 1013.6 0.0
25/07:00am 21.2 22.9 19.3 89 1.2 S 9 11 5 6 1013.3 1013.2 0.0
25/06:30am 21.1 22.9 19.6 91 1.0 S 9 13 5 7 1012.6 1012.5 0.0
25/06:00am 20.6 24.0 19.3 92 0.8 CALM 0 0 0 0 1012.2 1012.1 0.0
25/05:30am 21.2 24.8 19.8 92 0.9 CALM 0 0 0 0 1011.6 1011.5 0.0
25/05:00am 21.3 24.9 19.8 91 1.0 CALM 0 0 0 0 1011.1 1011.0 0.0
25/04:30am 22.1 23.8 20.9 93 0.8 SSE 13 19 7 10 1010.8 1010.7 0.0
25/04:00am 20.5 23.9 19.3 93 0.8 CALM 0 0 0 0 1010.6 1010.5 0.0
25/03:30am 20.6 24.0 19.4 93 0.8 CALM 0 0 0 0 1010.4 1010.3 0.0
25/03:00am 20.2 23.4 18.9 92 0.8 CALM 0 0 0 0 1010.4 1010.3 0.0
25/02:30am 21.0 23.3 19.8 93 0.8 SSW 7 9 4 5 1010.3 1010.2 0.0
25/02:00am 21.0 23.4 19.6 92 0.9 SSW 6 9 3 5 1009.8 1009.7 0.0
25/01:30am 21.3 25.0 19.9 92 0.9 CALM 0 0 0 0 1009.8 1009.7 0.0
25/01:00am 21.5 23.7 20.3 93 0.8 SW 9 11 5 6 1010.0 1009.9 0.0
25/12:30am 21.4 25.1 20.0 92 0.9 CALM 0 0 0 0 1010.0 1009.9 0.0
25/12:00am 21.9 25.9 20.5 92 0.9 CALM 0 0 0 0 1010.3 1010.2 0.0
 
Date/Time
EDT
Temp
°C
App
Temp
°C
Dew
Point
Rel
Hum
%
Delta-T
°C
Wind Press
QNH
hPa
Press
MSL
hPa
Rain
since 9 am
mm
Dir
 
Spd
km/h
Gust
km/h
Spd
kts
Gust
kts
24/11:30pm 21.8 25.7 20.3 91 1.0 CALM 0 0 0 0 1010.4 1010.3 0.0
24/11:00pm 22.0 26.0 20.5 91 1.0 CALM 0 0 0 0 1010.3 1010.2 0.0
24/10:30pm 22.4 26.5 20.7 90 1.1 CALM 0 0 0 0 1010.2 1010.1 0.0
24/10:00pm 22.9 27.0 20.8 88 1.4 CALM 0 0 0 0 1010.6 1010.5 0.0
24/09:30pm 23.5 27.8 21.2 87 1.5 CALM 0 0 0 0 1010.6 1010.5 0.0
24/09:00pm 23.7 28.1 21.4 87 1.5 CALM 0 0 0 0 1010.7 1010.6 0.0
24/08:30pm 23.8 28.2 21.3 86 1.6 CALM 0 0 0 0 1009.8 1009.7 0.0
24/08:00pm 24.0 28.4 21.3 85 1.8 CALM 0 0 0 0 1009.8 1009.7 0.0
24/07:30pm 24.5 28.6 20.8 80 2.4 CALM 0 0 0 0 1009.7 1009.6 0.0
24/07:00pm 25.1 27.5 20.8 77 2.8 NNE 9 11 5 6 1009.3 1009.2 0.0
24/06:30pm 26.0 28.0 20.8 73 3.4 NE 11 17 6 9 1008.8 1008.7 0.0

Other Formats:

Comma delimited format used in spreadsheet applications
http://www.bom.gov.au/fwo/IDN60801/IDN60801.94785.axf

JavaScript Object Notation format (JSON) in row-major order
http://www.bom.gov.au/fwo/IDN60801/IDN60801.94785.json